Time;durP1;ratioP1;P1;durP2;ratioP2;P2;SDS_P1;SDS_P2;PMS_P1;PMS_P2;Temp;Humidity;BMP_temperature;BMP_pressure;BME280_temperature;BME280_humidity;BME280_pressure;Samples;Min_cycle;Max_cycle;Signal;HPM_P1;HPM_P2
2023/08/25 00:00:32;;;;;;;14.00;9.35;;;;;;;;;;5021717;28;20574;-67
2023/08/25 00:02:58;;;;;;;13.93;10.35;;;;;;;;;;5028391;28;20525;-68
2023/08/25 00:05:23;;;;;;;13.45;9.65;;;;;;;;;;5028478;28;20201;-68
2023/08/25 00:07:49;;;;;;;20.50;9.63;;;;;;;;;;5029679;28;20182;-69
2023/08/25 00:10:15;;;;;;;12.07;9.70;;;;;;;;;;5025749;28;20194;-68
2023/08/25 00:12:41;;;;;;;13.02;9.98;;;;;;;;;;5031166;28;20182;-67
2023/08/25 00:15:07;;;;;;;9.25;8.00;;;;;;;;;;5027647;28;20197;-68
2023/08/25 00:17:35;;;;;;;14.80;11.02;;;;;;;;;;5032872;28;20622;-68
2023/08/25 00:20:01;;;;;;;15.35;11.30;;;;;;;;;;5030162;28;20226;-68
2023/08/25 00:22:27;;;;;;;11.93;10.52;;;;;;;;;;5033344;28;20194;-68
2023/08/25 00:24:55;;;;;;;14.15;11.95;;;;;;;;;;5024542;28;20529;-68
2023/08/25 00:27:20;;;;;;;15.18;11.77;;;;;;;;;;5033048;28;20667;-68
2023/08/25 00:29:46;;;;;;;14.15;12.55;;;;;;;;;;5028546;28;20273;-68
2023/08/25 00:32:12;;;;;;;13.25;11.18;;;;;;;;;;5033678;28;20505;-67
2023/08/25 00:34:37;;;;;;;15.85;12.50;;;;;;;;;;5031359;28;20301;-68
2023/08/25 00:37:04;;;;;;;15.52;12.90;;;;;;;;;;5040788;28;20193;-67
2023/08/25 00:39:29;;;;;;;16.05;12.90;;;;;;;;;;5014901;28;20215;-68
2023/08/25 00:41:55;;;;;;;14.93;12.80;;;;;;;;;;5020520;28;20534;-68
2023/08/25 00:44:20;;;;;;;15.07;13.57;;;;;;;;;;5017950;28;20614;-68
2023/08/25 00:46:46;;;;;;;18.55;13.88;;;;;;;;;;5034152;28;20213;-68
2023/08/25 00:49:13;;;;;;;21.20;14.75;;;;;;;;;;5027523;28;20557;-68
2023/08/25 00:51:38;;;;;;;18.40;15.23;;;;;;;;;;5032410;28;20232;-68
2023/08/25 00:54:04;;;;;;;18.63;15.75;;;;;;;;;;5033246;28;20601;-68
2023/08/25 00:56:29;;;;;;;19.30;15.45;;;;;;;;;;5032920;28;20555;-69
2023/08/25 00:58:55;;;;;;;20.08;15.82;;;;;;;;;;5030403;28;20195;-69
2023/08/25 01:01:21;;;;;;;19.08;16.27;;;;;;;;;;5028780;28;20290;-68
2023/08/25 01:03:48;;;;;;;19.65;15.50;;;;;;;;;;5031636;28;20640;-68
2023/08/25 01:06:13;;;;;;;14.77;12.70;;;;;;;;;;5033485;28;20240;-68
2023/08/25 01:08:39;;;;;;;18.00;15.85;;;;;;;;;;5031630;28;20201;-68
2023/08/25 01:11:33;;;;;;;19.10;16.77;;;;;;;;;;5034412;28;20187;-68
2023/08/25 01:14:20;;;;;;;20.55;16.80;;;;;;;;;;5032673;28;20713;-68
2023/08/25 01:16:58;;;;;;;21.23;17.58;;;;;;;;;;5026024;28;20193;-68
2023/08/25 01:19:48;;;;;;;23.65;17.92;;;;;;;;;;5027458;28;20201;-68
2023/08/25 01:22:17;;;;;;;20.38;18.27;;;;;;;;;;5030120;28;20701;-68
2023/08/25 01:24:47;;;;;;;23.48;19.52;;;;;;;;;;5025567;28;20515;-68
2023/08/25 01:27:13;;;;;;;21.80;18.08;;;;;;;;;;5028927;28;20247;-68
2023/08/25 01:29:42;;;;;;;25.10;19.80;;;;;;;;;;5024805;28;20190;-69
2023/08/25 01:32:08;;;;;;;22.50;18.02;;;;;;;;;;5039803;28;20676;-69
2023/08/25 01:34:33;;;;;;;28.80;20.88;;;;;;;;;;5027207;28;20457;-68
2023/08/25 01:37:21;;;;;;;26.05;21.33;;;;;;;;;;5028067;28;20190;-68
2023/08/25 01:39:50;;;;;;;26.48;21.75;;;;;;;;;;5026434;28;20212;-68
2023/08/25 01:42:17;;;;;;;25.05;22.10;;;;;;;;;;5020798;28;20197;-68
2023/08/25 01:44:44;;;;;;;29.90;22.92;;;;;;;;;;5027465;28;20226;-68
2023/08/25 01:47:10;;;;;;;27.88;22.42;;;;;;;;;;5041984;28;20205;-68
2023/08/25 01:49:37;;;;;;;28.50;23.55;;;;;;;;;;5023583;28;20183;-68
2023/08/25 01:52:03;;;;;;;31.08;23.58;;;;;;;;;;5022080;28;20206;-68
2023/08/25 01:54:30;;;;;;;29.88;22.17;;;;;;;;;;5029111;28;20233;-68
2023/08/25 01:56:55;;;;;;;29.15;24.20;;;;;;;;;;5032455;28;20213;-68
2023/08/25 01:59:21;;;;;;;30.65;24.10;;;;;;;;;;5020140;28;20238;-68
2023/08/25 02:01:46;;;;;;;31.85;25.50;;;;;;;;;;5029821;28;20196;-68
2023/08/25 02:04:11;;;;;;;24.13;21.48;;;;;;;;;;5030935;28;20198;-67
2023/08/25 02:06:37;;;;;;;28.55;25.02;;;;;;;;;;5028804;28;20186;-68
2023/08/25 02:09:03;;;;;;;26.85;23.90;;;;;;;;;;5032631;28;20273;-68
2023/08/25 02:11:28;;;;;;;22.45;19.33;;;;;;;;;;5026416;28;20194;-68
2023/08/25 02:13:54;;;;;;;29.52;23.88;;;;;;;;;;5032183;28;20248;-68
2023/08/25 02:16:19;;;;;;;30.52;25.60;;;;;;;;;;5017620;28;20206;-68
2023/08/25 02:18:44;;;;;;;28.67;22.67;;;;;;;;;;5029664;28;20206;-68
2023/08/25 02:21:10;;;;;;;31.45;25.58;;;;;;;;;;5024465;28;20221;-69
2023/08/25 02:23:35;;;;;;;30.70;25.58;;;;;;;;;;5027762;28;20229;-68
2023/08/25 02:26:00;;;;;;;34.88;26.88;;;;;;;;;;5020765;28;20194;-68
2023/08/25 02:28:26;;;;;;;36.00;27.35;;;;;;;;;;5032221;28;20277;-68
2023/08/25 02:30:51;;;;;;;33.67;27.67;;;;;;;;;;5024019;28;20281;-69
2023/08/25 02:33:17;;;;;;;28.02;22.13;;;;;;;;;;5023812;28;20209;-68
2023/08/25 02:35:42;;;;;;;31.60;26.00;;;;;;;;;;5022956;28;20290;-68
2023/08/25 02:38:10;;;;;;;34.20;27.80;;;;;;;;;;5020261;28;20198;-68
2023/08/25 02:40:37;;;;;;;34.00;28.45;;;;;;;;;;5016041;28;20214;-68
2023/08/25 02:43:04;;;;;;;34.22;27.58;;;;;;;;;;5013602;28;20257;-69
2023/08/25 02:45:30;;;;;;;33.90;27.58;;;;;;;;;;5011906;28;20274;-69
2023/08/25 02:47:56;;;;;;;31.52;24.33;;;;;;;;;;5027328;28;20187;-69
2023/08/25 02:50:22;;;;;;;27.38;22.52;;;;;;;;;;5030585;28;20345;-68
2023/08/25 02:52:48;;;;;;;29.30;26.05;;;;;;;;;;5029228;28;20222;-69
2023/08/25 02:55:16;;;;;;;32.53;25.50;;;;;;;;;;5031359;28;20252;-68
2023/08/25 02:57:48;;;;;;;35.40;29.60;;;;;;;;;;5031676;28;20194;-69
2023/08/25 03:00:21;;;;;;;35.25;27.95;;;;;;;;;;5029966;28;20678;-69
2023/08/25 03:02:48;;;;;;;29.83;26.65;;;;;;;;;;5031456;28;20589;-68
2023/08/25 03:05:13;;;;;;;34.33;28.27;;;;;;;;;;5027982;28;20240;-68
2023/08/25 03:07:39;;;;;;;31.45;26.45;;;;;;;;;;5031340;28;20190;-68
2023/08/25 03:10:05;;;;;;;35.85;29.73;;;;;;;;;;5029690;28;20725;-68
2023/08/25 03:12:30;;;;;;;39.75;30.95;;;;;;;;;;5022595;28;20189;-68
2023/08/25 03:14:56;;;;;;;40.25;31.10;;;;;;;;;;5031047;28;20194;-69
2023/08/25 03:17:22;;;;;;;43.15;31.65;;;;;;;;;;5030697;28;20315;-69
2023/08/25 03:19:48;;;;;;;42.80;32.83;;;;;;;;;;5027918;28;20214;-68
2023/08/25 03:22:13;;;;;;;40.45;31.27;;;;;;;;;;5029449;28;20646;-68
2023/08/25 03:24:39;;;;;;;43.95;33.65;;;;;;;;;;5030939;28;20237;-68
2023/08/25 03:27:04;;;;;;;40.58;32.85;;;;;;;;;;5031089;28;20186;-68
2023/08/25 03:29:32;;;;;;;46.90;34.70;;;;;;;;;;5031502;28;20653;-68
2023/08/25 03:31:59;;;;;;;40.20;31.88;;;;;;;;;;5026590;28;20288;-68
2023/08/25 03:34:24;;;;;;;49.17;35.30;;;;;;;;;;5032352;28;20190;-68
2023/08/25 03:36:50;;;;;;;40.92;31.50;;;;;;;;;;5027137;28;20268;-68
2023/08/25 03:39:16;;;;;;;39.85;32.05;;;;;;;;;;5018374;28;20576;-68
2023/08/25 03:41:41;;;;;;;34.22;26.48;;;;;;;;;;5020560;28;20189;-68
2023/08/25 03:44:07;;;;;;;38.17;29.60;;;;;;;;;;5028839;28;20324;-68
2023/08/25 03:46:33;;;;;;;41.60;31.60;;;;;;;;;;5018667;28;20205;-68
2023/08/25 03:48:58;;;;;;;42.45;31.55;;;;;;;;;;5031241;28;20189;-68
2023/08/25 03:51:23;;;;;;;40.65;31.75;;;;;;;;;;5029122;28;20197;-69
2023/08/25 03:53:49;;;;;;;37.33;29.63;;;;;;;;;;5031088;28;20273;-69
2023/08/25 03:56:14;;;;;;;40.65;31.73;;;;;;;;;;5029719;28;20201;-69
2023/08/25 03:58:40;;;;;;;39.05;32.00;;;;;;;;;;5029615;28;20186;-68
2023/08/25 04:01:05;;;;;;;43.97;33.38;;;;;;;;;;5030147;28;20682;-68
2023/08/25 04:03:30;;;;;;;42.72;34.33;;;;;;;;;;5011863;28;20201;-68
2023/08/25 04:05:56;;;;;;;45.40;34.42;;;;;;;;;;5029632;28;20529;-68
2023/08/25 04:08:21;;;;;;;49.45;35.63;;;;;;;;;;5029884;28;20277;-68
2023/08/25 04:10:47;;;;;;;50.50;34.17;;;;;;;;;;5030573;28;20185;-69
2023/08/25 04:13:13;;;;;;;44.42;34.08;;;;;;;;;;5029618;28;20194;-68
2023/08/25 04:15:39;;;;;;;37.45;29.92;;;;;;;;;;5023989;28;20190;-68
2023/08/25 04:18:04;;;;;;;42.22;34.28;;;;;;;;;;5021377;28;20668;-68
2023/08/25 04:20:30;;;;;;;44.70;34.38;;;;;;;;;;5028965;28;20241;-68
2023/08/25 04:22:56;;;;;;;46.05;36.53;;;;;;;;;;5036398;28;20194;-68
2023/08/25 04:25:21;;;;;;;44.58;34.97;;;;;;;;;;5029314;28;20372;-68
2023/08/25 04:27:46;;;;;;;47.35;37.45;;;;;;;;;;5030876;28;20186;-68
2023/08/25 04:30:12;;;;;;;49.08;34.78;;;;;;;;;;5027909;28;20185;-69
2023/08/25 04:32:37;;;;;;;48.35;36.03;;;;;;;;;;5029966;28;20606;-69
2023/08/25 04:35:03;;;;;;;44.95;34.72;;;;;;;;;;5016918;28;20183;-68
2023/08/25 04:37:29;;;;;;;45.85;33.63;;;;;;;;;;5015549;28;20190;-69
2023/08/25 04:39:55;;;;;;;45.63;34.88;;;;;;;;;;5029591;28;20209;-68
2023/08/25 04:42:21;;;;;;;44.35;34.28;;;;;;;;;;5010220;28;20202;-68
2023/08/25 04:44:47;;;;;;;41.47;33.33;;;;;;;;;;5027399;28;20230;-68
2023/08/25 04:47:12;;;;;;;43.40;35.33;;;;;;;;;;5011464;28;20253;-68
2023/08/25 04:49:38;;;;;;;36.42;31.35;;;;;;;;;;5024983;28;20190;-69
2023/08/25 04:52:03;;;;;;;38.95;33.03;;;;;;;;;;5030272;28;20201;-67
2023/08/25 04:54:29;;;;;;;50.38;36.65;;;;;;;;;;5029800;28;20535;-68
2023/08/25 04:56:54;;;;;;;42.20;35.38;;;;;;;;;;5015918;28;20729;-68
2023/08/25 04:59:20;;;;;;;42.65;33.65;;;;;;;;;;5023972;28;20256;-68
2023/08/25 05:01:45;;;;;;;41.80;35.03;;;;;;;;;;5028492;28;20218;-68
2023/08/25 05:04:11;;;;;;;45.15;37.40;;;;;;;;;;5034124;28;20190;-68
2023/08/25 05:06:37;;;;;;;45.92;38.05;;;;;;;;;;5021538;28;20710;-68
2023/08/25 05:09:03;;;;;;;45.33;35.92;;;;;;;;;;5023134;28;20285;-67
2023/08/25 05:11:28;;;;;;;45.58;37.25;;;;;;;;;;5033376;28;20289;-68
2023/08/25 05:13:54;;;;;;;47.35;38.75;;;;;;;;;;5034028;28;20712;-68
2023/08/25 05:16:19;;;;;;;45.72;35.38;;;;;;;;;;5021442;28;20199;-68
2023/08/25 05:18:45;;;;;;;45.17;36.58;;;;;;;;;;5040639;28;20225;-68
2023/08/25 05:21:10;;;;;;;41.13;33.65;;;;;;;;;;5024822;28;20720;-68
2023/08/25 05:23:36;;;;;;;43.20;33.05;;;;;;;;;;5028675;28;20193;-68
2023/08/25 05:26:03;;;;;;;45.30;36.50;;;;;;;;;;5027362;28;20194;-68
2023/08/25 05:28:28;;;;;;;47.80;37.10;;;;;;;;;;5015081;28;20195;-69
2023/08/25 05:30:54;;;;;;;48.58;37.20;;;;;;;;;;5026655;28;20526;-69
2023/08/25 05:33:19;;;;;;;46.35;37.55;;;;;;;;;;5016543;28;20248;-69
2023/08/25 05:35:45;;;;;;;44.92;36.08;;;;;;;;;;5028473;28;20540;-68
2023/08/25 05:38:10;;;;;;;48.38;38.15;;;;;;;;;;5024241;28;20194;-68
2023/08/25 05:40:35;;;;;;;48.05;36.67;;;;;;;;;;5027718;28;20286;-67
2023/08/25 05:43:01;;;;;;;50.70;35.90;;;;;;;;;;5017499;28;20185;-69
2023/08/25 05:45:26;;;;;;;44.63;33.15;;;;;;;;;;5033124;28;20186;-68
2023/08/25 05:47:51;;;;;;;45.67;35.80;;;;;;;;;;5032080;28;20194;-68
2023/08/25 05:50:17;;;;;;;45.53;35.80;;;;;;;;;;5024836;28;20667;-68
2023/08/25 05:52:45;;;;;;;44.58;35.00;;;;;;;;;;5027041;28;20297;-69
2023/08/25 05:55:13;;;;;;;44.50;36.53;;;;;;;;;;5032261;28;20190;-68
2023/08/25 05:57:39;;;;;;;46.70;36.88;;;;;;;;;;5018334;28;20187;-69
2023/08/25 06:00:06;;;;;;;49.97;35.55;;;;;;;;;;5030666;28;20210;-70
2023/08/25 06:02:32;;;;;;;44.70;34.28;;;;;;;;;;5026413;28;20606;-68
2023/08/25 06:04:58;;;;;;;44.45;34.45;;;;;;;;;;5031633;28;20681;-69
2023/08/25 06:07:23;;;;;;;51.60;38.28;;;;;;;;;;5031671;28;20212;-69
2023/08/25 06:09:48;;;;;;;52.17;39.88;;;;;;;;;;5032184;28;20197;-69
2023/08/25 06:12:14;;;;;;;55.13;38.25;;;;;;;;;;5032294;28;20198;-69
2023/08/25 06:14:39;;;;;;;52.92;37.67;;;;;;;;;;5044503;28;20195;-68
2023/08/25 06:17:05;;;;;;;51.60;38.67;;;;;;;;;;5019300;28;20711;-69
2023/08/25 06:19:30;;;;;;;49.85;37.03;;;;;;;;;;5032331;28;20260;-69
2023/08/25 06:21:56;;;;;;;48.25;37.10;;;;;;;;;;5023962;28;20230;-69
2023/08/25 06:24:22;;;;;;;48.60;36.50;;;;;;;;;;5031929;28;20190;-69
2023/08/25 06:26:47;;;;;;;50.63;37.53;;;;;;;;;;5025282;28;20202;-69
2023/08/25 06:29:13;;;;;;;53.63;36.92;;;;;;;;;;5028512;28;20208;-69
2023/08/25 06:31:38;;;;;;;45.08;35.58;;;;;;;;;;5035775;28;20244;-69
2023/08/25 06:34:04;;;;;;;40.85;31.85;;;;;;;;;;5031838;28;20212;-69
2023/08/25 06:36:32;;;;;;;44.60;31.08;;;;;;;;;;5030479;28;20244;-69
2023/08/25 06:38:58;;;;;;;45.92;35.47;;;;;;;;;;5026890;28;20183;-69
2023/08/25 06:41:24;;;;;;;49.80;36.05;;;;;;;;;;5029915;28;20582;-69
2023/08/25 06:43:50;;;;;;;48.00;35.80;;;;;;;;;;5029637;28;20312;-69
2023/08/25 06:46:15;;;;;;;47.88;36.80;;;;;;;;;;5030798;28;20337;-69
2023/08/25 06:48:40;;;;;;;45.17;35.63;;;;;;;;;;5032025;28;20559;-69
2023/08/25 06:51:06;;;;;;;51.10;37.13;;;;;;;;;;5029314;28;20193;-69
2023/08/25 06:53:31;;;;;;;49.28;36.55;;;;;;;;;;5029472;28;20292;-69
2023/08/25 06:55:57;;;;;;;45.72;36.20;;;;;;;;;;5030975;28;20621;-68
2023/08/25 06:58:22;;;;;;;47.75;35.22;;;;;;;;;;5028487;28;20279;-68
2023/08/25 07:00:50;;;;;;;41.00;33.53;;;;;;;;;;5031089;28;20217;-68
2023/08/25 07:03:16;;;;;;;42.28;32.53;;;;;;;;;;5030086;28;20295;-68
2023/08/25 07:05:41;;;;;;;43.03;31.70;;;;;;;;;;5030650;28;20239;-68
2023/08/25 07:08:07;;;;;;;43.22;31.73;;;;;;;;;;5027312;28;20222;-68
2023/08/25 07:10:32;;;;;;;41.50;31.45;;;;;;;;;;5032159;28;20190;-68
2023/08/25 07:12:57;;;;;;;39.20;30.65;;;;;;;;;;5028028;28;20209;-68
2023/08/25 07:15:23;;;;;;;40.92;31.95;;;;;;;;;;5030440;28;20266;-68
2023/08/25 07:17:48;;;;;;;37.13;29.17;;;;;;;;;;5026880;28;20760;-68
2023/08/25 07:20:14;;;;;;;37.33;26.77;;;;;;;;;;5030000;28;20210;-68
2023/08/25 07:22:40;;;;;;;35.40;27.35;;;;;;;;;;5029661;28;20249;-68
2023/08/25 07:25:06;;;;;;;35.40;28.73;;;;;;;;;;5021765;28;20210;-68
2023/08/25 07:27:31;;;;;;;40.92;29.67;;;;;;;;;;5019792;28;20240;-68
2023/08/25 07:29:58;;;;;;;39.03;30.98;;;;;;;;;;5027396;28;20198;-68
2023/08/25 07:32:23;;;;;;;38.20;30.58;;;;;;;;;;5021325;28;20316;-68
2023/08/25 07:34:49;;;;;;;37.00;29.88;;;;;;;;;;5031646;28;20273;-68
2023/08/25 07:37:14;;;;;;;41.72;30.00;;;;;;;;;;5024433;28;20198;-68
2023/08/25 07:39:40;;;;;;;38.25;29.10;;;;;;;;;;5025516;28;20693;-68
2023/08/25 07:42:06;;;;;;;34.65;28.38;;;;;;;;;;5020669;28;20199;-67
2023/08/25 07:44:32;;;;;;;39.08;30.45;;;;;;;;;;5027151;28;20292;-67
2023/08/25 07:46:57;;;;;;;37.03;30.02;;;;;;;;;;5023821;28;20198;-67
2023/08/25 07:49:23;;;;;;;37.10;28.88;;;;;;;;;;5023468;28;20264;-68
2023/08/25 07:51:48;;;;;;;40.17;29.83;;;;;;;;;;5026867;28;20190;-67
2023/08/25 07:54:13;;;;;;;39.15;28.05;;;;;;;;;;5010705;28;20195;-68
2023/08/25 07:56:39;;;;;;;38.53;28.60;;;;;;;;;;5025435;28;20522;-68
2023/08/25 07:59:05;;;;;;;35.80;28.05;;;;;;;;;;5011211;28;20190;-68
2023/08/25 08:01:31;;;;;;;35.28;28.77;;;;;;;;;;5027422;28;20232;-68
2023/08/25 08:03:56;;;;;;;25.50;20.92;;;;;;;;;;5028868;28;20217;-68
2023/08/25 08:06:22;;;;;;;37.38;27.88;;;;;;;;;;5033708;28;20288;-68
2023/08/25 08:08:48;;;;;;;35.85;28.35;;;;;;;;;;5029087;28;20182;-69
2023/08/25 08:11:13;;;;;;;36.53;28.65;;;;;;;;;;5029895;28;20212;-69
2023/08/25 08:13:39;;;;;;;33.28;27.73;;;;;;;;;;5028867;28;20182;-68
2023/08/25 08:16:04;;;;;;;40.95;29.80;;;;;;;;;;5031058;28;20186;-68
2023/08/25 08:18:30;;;;;;;37.70;30.17;;;;;;;;;;5028872;28;20221;-68
2023/08/25 08:20:55;;;;;;;35.78;29.30;;;;;;;;;;5012248;28;20223;-69
2023/08/25 08:23:20;;;;;;;37.22;28.80;;;;;;;;;;5024613;28;20562;-68
2023/08/25 08:25:46;;;;;;;31.55;25.20;;;;;;;;;;5031266;28;20366;-68
2023/08/25 08:28:12;;;;;;;38.67;28.63;;;;;;;;;;5028231;28;20190;-69
2023/08/25 08:30:37;;;;;;;40.55;29.38;;;;;;;;;;5032857;28;20646;-69
2023/08/25 08:33:04;;;;;;;32.53;27.88;;;;;;;;;;5025324;28;20661;-69
2023/08/25 08:35:29;;;;;;;37.00;29.00;;;;;;;;;;5026306;28;20277;-69
2023/08/25 08:37:55;;;;;;;37.45;29.77;;;;;;;;;;5023115;28;20610;-69
2023/08/25 08:40:20;;;;;;;38.33;29.88;;;;;;;;;;5030460;28;20213;-68
2023/08/25 08:42:49;;;;;;;37.45;28.63;;;;;;;;;;5025435;28;20665;-69
2023/08/25 08:45:17;;;;;;;32.97;26.60;;;;;;;;;;5033828;28;20260;-69
2023/08/25 08:47:44;;;;;;;38.78;28.10;;;;;;;;;;5014812;28;20626;-69
2023/08/25 08:50:09;;;;;;;34.55;28.42;;;;;;;;;;5033127;28;20209;-69
2023/08/25 08:52:35;;;;;;;39.60;29.48;;;;;;;;;;5034863;28;20222;-70
2023/08/25 08:55:04;;;;;;;34.67;29.38;;;;;;;;;;5033696;28;20190;-69
2023/08/25 08:57:30;;;;;;;36.22;28.13;;;;;;;;;;5034500;28;20190;-69
2023/08/25 08:59:59;;;;;;;35.22;27.80;;;;;;;;;;5033179;28;20213;-69
2023/08/25 09:02:28;;;;;;;32.58;27.60;;;;;;;;;;5031640;28;20268;-69
2023/08/25 09:04:58;;;;;;;39.40;28.85;;;;;;;;;;5021329;28;20194;-69
2023/08/25 09:07:29;;;;;;;36.35;28.30;;;;;;;;;;5031791;28;20700;-69
2023/08/25 09:09:57;;;;;;;36.20;29.63;;;;;;;;;;5032322;28;20186;-69
2023/08/25 09:12:22;;;;;;;35.45;29.90;;;;;;;;;;5028566;28;20316;-69
2023/08/25 09:14:48;;;;;;;35.55;29.15;;;;;;;;;;5026936;28;20294;-69
2023/08/25 09:17:14;;;;;;;36.35;26.58;;;;;;;;;;5028621;28;20292;-69
2023/08/25 09:19:40;;;;;;;31.33;25.48;;;;;;;;;;5024517;28;20206;-68
2023/08/25 09:22:11;;;;;;;32.40;24.25;;;;;;;;;;5031291;28;20212;-69
2023/08/25 09:24:38;;;;;;;33.17;25.27;;;;;;;;;;5024356;28;20190;-68
2023/08/25 09:27:04;;;;;;;35.08;26.02;;;;;;;;;;5032148;28;20603;-69
2023/08/25 09:29:42;;;;;;;36.60;27.75;;;;;;;;;;5032738;28;20185;-68
2023/08/25 09:32:14;;;;;;;37.17;28.17;;;;;;;;;;5033657;28;20214;-68
2023/08/25 09:34:40;;;;;;;37.78;28.42;;;;;;;;;;5032569;28;20189;-68
2023/08/25 09:37:05;;;;;;;42.03;31.25;;;;;;;;;;5031065;28;20194;-67
2023/08/25 09:39:42;;;;;;;38.50;30.65;;;;;;;;;;5020319;28;20692;-68
2023/08/25 09:42:07;;;;;;;40.45;30.00;;;;;;;;;;5030086;28;20280;-70
2023/08/25 09:44:33;;;;;;;43.90;33.03;;;;;;;;;;5029706;28;20289;-71
2023/08/25 09:46:58;;;;;;;45.65;33.45;;;;;;;;;;5032138;28;20186;-71
2023/08/25 09:49:24;;;;;;;41.65;31.73;;;;;;;;;;5030688;28;20634;-68
2023/08/25 09:51:50;;;;;;;36.72;30.23;;;;;;;;;;5028280;28;20239;-69
2023/08/25 09:54:18;;;;;;;38.90;30.98;;;;;;;;;;5032023;28;20194;-68
2023/08/25 09:56:45;;;;;;;35.17;29.13;;;;;;;;;;5016079;28;20641;-68
2023/08/25 09:59:12;;;;;;;32.67;26.00;;;;;;;;;;5033378;28;20326;-68
2023/08/25 10:01:41;;;;;;;29.60;23.40;;;;;;;;;;5033681;28;20223;-68
2023/08/25 10:04:06;;;;;;;29.38;22.38;;;;;;;;;;5021622;28;20650;-67
2023/08/25 10:06:34;;;;;;;25.98;21.55;;;;;;;;;;5031915;28;20276;-68
2023/08/25 10:09:01;;;;;;;27.27;21.48;;;;;;;;;;5025077;28;20634;-68
2023/08/25 10:11:29;;;;;;;26.85;20.92;;;;;;;;;;5028308;28;20186;-68
2023/08/25 10:13:56;;;;;;;25.90;20.40;;;;;;;;;;5022069;28;20245;-68
2023/08/25 10:16:24;;;;;;;24.25;20.40;;;;;;;;;;5024496;28;20190;-67
2023/08/25 10:18:50;;;;;;;23.20;19.55;;;;;;;;;;5023234;28;20205;-68
2023/08/25 10:21:19;;;;;;;25.00;19.65;;;;;;;;;;5031834;28;20763;-65
2023/08/25 10:23:47;;;;;;;24.40;20.63;;;;;;;;;;5028897;28;20182;-68
2023/08/25 10:26:13;;;;;;;24.75;20.50;;;;;;;;;;5031768;28;20269;-67
2023/08/25 10:28:38;;;;;;;22.15;19.13;;;;;;;;;;5024199;28;20274;-67
2023/08/25 10:31:04;;;;;;;23.35;20.20;;;;;;;;;;5035445;28;20240;-67
2023/08/25 10:33:50;;;;;;;28.48;21.38;;;;;;;;;;5029930;28;20194;-67
2023/08/25 10:36:21;;;;;;;23.48;19.95;;;;;;;;;;5018551;28;20192;-67
2023/08/25 10:38:52;;;;;;;22.63;19.77;;;;;;;;;;5021528;28;20634;-67
2023/08/25 10:41:18;;;;;;;25.30;20.90;;;;;;;;;;5023821;28;20214;-67
2023/08/25 10:43:51;;;;;;;24.80;22.08;;;;;;;;;;5022073;28;20639;-67
2023/08/25 10:46:20;;;;;;;28.50;23.48;;;;;;;;;;5030706;28;20179;-67
2023/08/25 10:48:48;;;;;;;24.35;21.75;;;;;;;;;;5030553;28;20217;-67
2023/08/25 10:51:19;;;;;;;28.15;23.63;;;;;;;;;;5030885;28;20190;-67
2023/08/25 10:53:51;;;;;;;32.70;25.85;;;;;;;;;;5030694;28;20190;-67
2023/08/25 10:56:22;;;;;;;32.05;27.23;;;;;;;;;;5041707;28;20194;-67
2023/08/25 10:58:58;;;;;;;30.88;27.50;;;;;;;;;;5029432;28;20255;-67
2023/08/25 11:01:33;;;;;;;31.75;27.73;;;;;;;;;;5030718;28;20299;-67
2023/08/25 11:04:07;;;;;;;32.35;28.88;;;;;;;;;;5031636;28;20606;-68
2023/08/25 11:06:37;;;;;;;29.63;26.55;;;;;;;;;;5030027;28;20280;-68
2023/08/25 11:09:03;;;;;;;28.63;25.60;;;;;;;;;;5027794;28;20222;-68
2023/08/25 11:11:30;;;;;;;32.25;28.88;;;;;;;;;;5024920;28;20594;-67
2023/08/25 11:13:58;;;;;;;31.85;28.33;;;;;;;;;;5030628;28;20216;-67
2023/08/25 11:16:24;;;;;;;33.15;29.70;;;;;;;;;;5030606;28;20273;-67
2023/08/25 11:18:50;;;;;;;32.50;29.10;;;;;;;;;;5024727;28;20737;-67
2023/08/25 11:21:16;;;;;;;31.15;27.77;;;;;;;;;;5030869;28;20221;-68
2023/08/25 11:23:43;;;;;;;30.58;27.40;;;;;;;;;;5025357;28;20201;-67
2023/08/25 11:26:09;;;;;;;30.85;27.48;;;;;;;;;;5031046;28;20747;-69
2023/08/25 11:28:35;;;;;;;29.73;26.58;;;;;;;;;;5029016;28;20197;-68
2023/08/25 11:31:01;;;;;;;28.08;25.33;;;;;;;;;;5033886;28;20248;-68
2023/08/25 11:33:27;;;;;;;32.35;28.13;;;;;;;;;;5023588;28;20286;-67
2023/08/25 11:35:53;;;;;;;32.10;28.67;;;;;;;;;;5030195;28;20202;-68
2023/08/25 11:38:20;;;;;;;29.23;26.13;;;;;;;;;;5027505;28;20186;-67
2023/08/25 11:40:45;;;;;;;29.40;26.05;;;;;;;;;;5028846;28;20209;-67
2023/08/25 11:43:11;;;;;;;28.33;25.40;;;;;;;;;;5025117;28;20256;-67
2023/08/25 11:45:37;;;;;;;29.40;26.42;;;;;;;;;;5012851;28;20206;-67
2023/08/25 11:48:03;;;;;;;29.23;26.10;;;;;;;;;;5026794;28;20189;-67
2023/08/25 11:50:29;;;;;;;30.40;27.27;;;;;;;;;;5019314;28;20642;-67
2023/08/25 11:52:55;;;;;;;29.73;26.70;;;;;;;;;;5030347;28;20201;-67
2023/08/25 11:55:20;;;;;;;27.33;24.55;;;;;;;;;;5018345;28;20285;-67
2023/08/25 11:57:50;;;;;;;24.38;21.77;;;;;;;;;;5029272;28;20528;-67
2023/08/25 12:00:16;;;;;;;27.00;23.35;;;;;;;;;;5030059;28;20226;-70
2023/08/25 12:02:41;;;;;;;24.58;21.95;;;;;;;;;;5022027;28;20183;-67
2023/08/25 12:05:07;;;;;;;25.88;21.17;;;;;;;;;;5012803;28;20189;-68
2023/08/25 12:07:37;;;;;;;24.35;21.85;;;;;;;;;;5027166;28;20281;-70
2023/08/25 12:10:05;;;;;;;24.23;21.42;;;;;;;;;;5035147;28;20197;-69
2023/08/25 12:12:31;;;;;;;22.17;19.77;;;;;;;;;;5037450;28;20198;-67
2023/08/25 12:14:57;;;;;;;20.23;18.15;;;;;;;;;;5034368;28;20649;-66
2023/08/25 12:17:27;;;;;;;16.10;14.48;;;;;;;;;;5036843;28;20205;-70
2023/08/25 12:19:53;;;;;;;16.23;14.63;;;;;;;;;;5035542;28;20659;-66
2023/08/25 12:22:18;;;;;;;13.02;11.73;;;;;;;;;;5036394;28;20181;-66
2023/08/25 12:24:45;;;;;;;13.60;11.38;;;;;;;;;;5037456;28;20196;-67
2023/08/25 12:27:10;;;;;;;14.00;11.73;;;;;;;;;;5035870;28;20186;-67
2023/08/25 12:29:36;;;;;;;15.02;11.25;;;;;;;;;;5035703;28;20185;-67
2023/08/25 12:32:02;;;;;;;13.93;11.32;;;;;;;;;;5039212;28;20190;-67
2023/08/25 12:34:27;;;;;;;12.23;11.07;;;;;;;;;;5034157;28;20190;-67
2023/08/25 12:36:53;;;;;;;13.73;12.23;;;;;;;;;;5036724;28;20554;-67
2023/08/25 12:39:18;;;;;;;14.65;13.15;;;;;;;;;;5035648;28;20560;-67
2023/08/25 12:41:44;;;;;;;13.75;12.38;;;;;;;;;;5029007;28;20546;-67
2023/08/25 12:44:10;;;;;;;12.50;11.20;;;;;;;;;;5022324;28;20325;-67
2023/08/25 12:46:35;;;;;;;12.88;11.77;;;;;;;;;;5035295;28;20189;-67
2023/08/25 12:49:01;;;;;;;13.40;12.10;;;;;;;;;;5032855;28;20203;-67
2023/08/25 12:51:27;;;;;;;12.55;11.25;;;;;;;;;;5033818;28;20269;-67
2023/08/25 12:53:56;;;;;;;12.32;11.02;;;;;;;;;;5024356;28;20672;-68
2023/08/25 12:56:21;;;;;;;12.13;10.77;;;;;;;;;;5031630;28;20186;-68
2023/08/25 12:58:52;;;;;;;12.82;10.43;;;;;;;;;;5032361;28;20202;-68
2023/08/25 13:01:18;;;;;;;11.40;10.30;;;;;;;;;;5028834;28;20814;-68
2023/08/25 13:03:43;;;;;;;11.15;10.05;;;;;;;;;;5033179;28;20233;-68
2023/08/25 13:06:08;;;;;;;10.18;9.10;;;;;;;;;;5035538;28;20186;-67
2023/08/25 13:08:34;;;;;;;10.75;9.65;;;;;;;;;;5029799;28;20190;-68
2023/08/25 13:10:59;;;;;;;13.95;9.32;;;;;;;;;;5026484;28;20685;-67
2023/08/25 13:13:24;;;;;;;11.02;9.43;;;;;;;;;;5034467;28;20201;-68
2023/08/25 13:15:50;;;;;;;10.50;9.40;;;;;;;;;;5014633;28;20713;-68
2023/08/25 13:18:15;;;;;;;10.57;8.80;;;;;;;;;;5025977;28;20726;-68
2023/08/25 13:20:41;;;;;;;9.65;8.65;;;;;;;;;;5030684;28;20577;-68
2023/08/25 13:23:06;;;;;;;10.15;8.85;;;;;;;;;;5032872;28;20197;-68
2023/08/25 13:25:31;;;;;;;9.10;8.20;;;;;;;;;;5018377;28;20182;-68
2023/08/25 13:27:57;;;;;;;10.35;7.53;;;;;;;;;;5032511;28;20193;-68
2023/08/25 13:30:22;;;;;;;8.68;7.70;;;;;;;;;;5031915;28;20624;-68
2023/08/25 13:32:48;;;;;;;8.80;7.15;;;;;;;;;;5032040;28;20251;-69
2023/08/25 13:35:13;;;;;;;9.23;7.80;;;;;;;;;;5018733;28;20194;-69
2023/08/25 13:37:38;;;;;;;8.23;7.38;;;;;;;;;;5029329;28;20260;-70
2023/08/25 13:40:04;;;;;;;8.27;7.40;;;;;;;;;;5027800;28;20592;-69
2023/08/25 13:42:31;;;;;;;9.18;7.68;;;;;;;;;;5018982;28;20222;-69
2023/08/25 13:44:56;;;;;;;8.32;7.38;;;;;;;;;;5028942;28;20233;-69
2023/08/25 13:47:22;;;;;;;9.40;7.35;;;;;;;;;;5032674;28;20198;-69
2023/08/25 13:49:47;;;;;;;7.10;6.50;;;;;;;;;;5026780;28;20226;-69
2023/08/25 13:52:13;;;;;;;8.60;7.72;;;;;;;;;;5031703;28;20701;-68
2023/08/25 13:54:38;;;;;;;7.45;6.68;;;;;;;;;;5025970;28;20619;-69
2023/08/25 13:57:04;;;;;;;7.93;7.18;;;;;;;;;;5033570;28;20531;-68
2023/08/25 13:59:29;;;;;;;8.18;7.07;;;;;;;;;;5031637;28;20240;-68
2023/08/25 14:01:54;;;;;;;7.75;7.00;;;;;;;;;;5031658;28;20213;-71
2023/08/25 14:04:20;;;;;;;9.48;7.45;;;;;;;;;;5031796;28;20261;-69
2023/08/25 14:06:45;;;;;;;8.38;7.43;;;;;;;;;;5026894;28;20743;-68
2023/08/25 14:09:11;;;;;;;8.82;7.65;;;;;;;;;;5032709;28;20692;-68
2023/08/25 14:11:36;;;;;;;10.07;7.88;;;;;;;;;;5030504;28;20194;-69
2023/08/25 14:14:02;;;;;;;9.80;7.68;;;;;;;;;;5028517;28;20594;-68